createdAt,value
2022-10-01T00:00:37.030Z,11.6
2022-10-01T00:01:39.591Z,11.6
2022-10-01T00:02:44.077Z,11.6
2022-10-01T00:03:47.057Z,11.6
2022-10-01T00:04:49.796Z,11.6
2022-10-01T00:05:53.906Z,11.6
2022-10-01T00:06:57.397Z,11.6
2022-10-01T00:08:01.028Z,11.5
2022-10-01T00:09:04.245Z,11.5
2022-10-01T00:10:06.954Z,11.5
2022-10-01T00:11:09.813Z,11.5
2022-10-01T00:12:13.089Z,11.5
2022-10-01T00:13:16.049Z,11.5
2022-10-01T00:14:18.314Z,11.5
2022-10-01T00:15:21.028Z,11.5
2022-10-01T00:16:23.902Z,11.5
2022-10-01T00:17:27.870Z,11.5
2022-10-01T00:18:31.392Z,11.5
2022-10-01T00:19:34.283Z,11.5
2022-10-01T00:20:36.870Z,11.5
2022-10-01T00:21:40.279Z,11.5
2022-10-01T00:22:43.965Z,11.5
2022-10-01T00:23:47.423Z,11.5
2022-10-01T00:24:49.738Z,11.5
2022-10-01T00:25:52.258Z,11.5
2022-10-01T00:26:54.410Z,11.5
2022-10-01T00:27:58.063Z,11.5
2022-10-01T00:29:01.150Z,11.5
2022-10-01T00:30:04.221Z,11.5
2022-10-01T00:31:07.602Z,11.5
2022-10-01T00:32:10.391Z,11.5
2022-10-01T00:33:13.341Z,11.5
2022-10-01T00:34:16.138Z,11.5
2022-10-01T00:35:19.021Z,11.5
2022-10-01T00:36:21.891Z,11.5
2022-10-01T00:37:25.420Z,11.5
2022-10-01T00:38:28.550Z,11.5
2022-10-01T00:39:31.637Z,11.5
2022-10-01T00:40:34.493Z,11.5
2022-10-01T00:41:38.510Z,11.5
2022-10-01T00:42:41.216Z,11.5
2022-10-01T00:43:44.300Z,11.5
2022-10-01T00:44:47.953Z,11.5
2022-10-01T00:45:51.267Z,11.5
2022-10-01T00:46:54.676Z,11.5
2022-10-01T00:47:57.388Z,11.5
2022-10-01T00:49:00.203Z,11.5
2022-10-01T00:50:03.574Z,11.5
2022-10-01T00:51:06.415Z,11.5
2022-10-01T00:52:09.128Z,11.5
2022-10-01T00:53:12.873Z,11.5
2022-10-01T00:54:15.699Z,11.5
2022-10-01T00:55:19.383Z,11.5
2022-10-01T00:56:22.546Z,11.6
2022-10-01T00:57:25.993Z,11.6
2022-10-01T00:58:29.065Z,11.6
2022-10-01T00:59:32.544Z,11.6
2022-10-01T01:00:35.538Z,11.6
2022-10-01T01:01:39.194Z,11.6
2022-10-01T01:02:42.524Z,11.6
2022-10-01T01:03:45.572Z,11.6
2022-10-01T01:04:48.359Z,11.6
2022-10-01T01:05:51.502Z,11.6
2022-10-01T01:06:54.023Z,11.6
2022-10-01T01:07:57.393Z,11.6
2022-10-01T01:09:01.220Z,11.5
2022-10-01T01:10:03.852Z,11.5
2022-10-01T01:11:07.468Z,11.6
2022-10-01T01:12:10.650Z,11.6
2022-10-01T01:13:13.921Z,11.6
2022-10-01T01:14:16.872Z,11.5
2022-10-01T01:15:20.239Z,11.5
2022-10-01T01:16:23.310Z,11.5
2022-10-01T01:17:27.316Z,11.5
2022-10-01T01:18:29.554Z,11.5
2022-10-01T01:19:31.867Z,11.5
2022-10-01T01:20:35.012Z,11.5
2022-10-01T01:21:38.454Z,11.5
2022-10-01T01:22:41.603Z,11.5
2022-10-01T01:23:44.943Z,11.5
2022-10-01T01:24:49.047Z,11.5
2022-10-01T01:25:52.273Z,11.5
2022-10-01T01:26:55.710Z,11.5
2022-10-01T01:27:59.425Z,11.5
2022-10-01T01:29:02.142Z,11.5
2022-10-01T01:30:05.058Z,11.5
2022-10-01T01:31:08.136Z,11.5
2022-10-01T01:32:15.668Z,11.6
2022-10-01T01:33:18.847Z,11.5
2022-10-01T01:34:21.635Z,11.5
2022-10-01T01:35:24.414Z,11.6
2022-10-01T01:36:26.992Z,11.6
2022-10-01T01:37:30.351Z,11.6
2022-10-01T01:38:33.411Z,11.5
2022-10-01T01:39:36.122Z,11.6
2022-10-01T01:40:40.014Z,11.6
2022-10-01T01:41:43.392Z,11.5
2022-10-01T01:42:46.902Z,11.5
2022-10-01T01:43:50.327Z,11.5
2022-10-01T01:44:53.324Z,11.6
2022-10-01T01:45:56.903Z,11.6
2022-10-01T01:47:00.549Z,11.6
2022-10-01T01:48:03.691Z,11.6
2022-10-01T01:49:05.918Z,11.6
2022-10-01T01:50:08.807Z,11.5
2022-10-01T01:51:12.151Z,11.5
2022-10-01T01:52:15.317Z,11.5
2022-10-01T01:53:18.030Z,11.5
2022-10-01T01:54:20.738Z,11.5
2022-10-01T01:55:23.258Z,11.5
2022-10-01T01:56:27.016Z,11.5
2022-10-01T01:57:30.129Z,11.5
2022-10-01T01:58:33.953Z,11.5
2022-10-01T01:59:37.022Z,11.5
2022-10-01T02:00:40.166Z,11.5
2022-10-01T02:01:43.318Z,11.5
2022-10-01T02:02:46.899Z,11.4
2022-10-01T02:03:50.118Z,11.4
2022-10-01T02:04:52.907Z,11.4
2022-10-01T02:05:56.076Z,11.4
2022-10-01T02:06:58.936Z,11.4
2022-10-01T02:08:02.006Z,11.4
2022-10-01T02:09:04.159Z,11.5
2022-10-01T02:10:07.222Z,11.5
2022-10-01T02:11:10.361Z,11.5
2022-10-01T02:12:13.768Z,11.5
2022-10-01T02:13:16.885Z,11.4
2022-10-01T02:14:20.325Z,11.5
2022-10-01T02:15:23.032Z,11.5
2022-10-01T02:16:26.263Z,11.4
2022-10-01T02:17:29.952Z,11.4
2022-10-01T02:18:33.412Z,11.5
2022-10-01T02:19:35.451Z,11.4
2022-10-01T02:20:39.162Z,11.4
2022-10-01T02:21:42.036Z,11.5
2022-10-01T02:22:45.108Z,11.5
2022-10-01T02:23:47.892Z,11.5
2022-10-01T02:24:50.869Z,11.4
2022-10-01T02:25:54.016Z,11.5
2022-10-01T02:26:57.440Z,11.5
2022-10-01T02:28:01.199Z,11.5
2022-10-01T02:29:04.484Z,11.5
2022-10-01T02:30:07.654Z,11.5
2022-10-01T02:31:10.400Z,11.5
2022-10-01T02:32:13.770Z,11.4
2022-10-01T02:33:16.348Z,11.4
2022-10-01T02:34:21.435Z,11.4
2022-10-01T02:35:24.303Z,11.4
2022-10-01T02:36:27.094Z,11.4
2022-10-01T02:37:29.763Z,11.4
2022-10-01T02:38:33.484Z,11.4
2022-10-01T02:39:36.473Z,11.4
2022-10-01T02:40:39.260Z,11.4
2022-10-01T02:41:42.229Z,11.4
2022-10-01T02:42:45.330Z,11.4
2022-10-01T02:43:48.820Z,11.4
2022-10-01T02:44:51.998Z,11.4
2022-10-01T02:45:55.704Z,11.4
2022-10-01T02:46:59.088Z,11.4
2022-10-01T02:48:01.397Z,11.3
2022-10-01T02:49:04.467Z,11.3
2022-10-01T02:50:07.552Z,11.3
2022-10-01T02:51:10.626Z,11.3
2022-10-01T02:52:13.888Z,11.3
2022-10-01T02:53:17.231Z,11.3
2022-10-01T02:54:19.858Z,11.3
2022-10-01T02:55:22.654Z,11.3
2022-10-01T02:56:25.160Z,11.3
2022-10-01T02:57:27.871Z,11.3
2022-10-01T02:58:30.856Z,11.3
2022-10-01T02:59:34.793Z,11.3
2022-10-01T03:00:37.902Z,11.3
2022-10-01T03:01:41.763Z,11.3
2022-10-01T03:02:44.969Z,11.3
2022-10-01T03:03:49.056Z,11.3
2022-10-01T03:04:51.934Z,11.3
2022-10-01T03:05:54.834Z,11.2
2022-10-01T03:06:57.979Z,11.2
2022-10-01T03:08:01.349Z,11.2
2022-10-01T03:09:04.419Z,11.2
2022-10-01T03:10:07.564Z,11.2
2022-10-01T03:11:11.292Z,11.2
2022-10-01T03:12:14.163Z,11.2
2022-10-01T03:13:16.762Z,11.2
2022-10-01T03:14:20.306Z,11.2
2022-10-01T03:15:23.720Z,11.2
2022-10-01T03:16:26.620Z,11.2
2022-10-01T03:17:30.394Z,11.2
2022-10-01T03:18:33.173Z,11.2
2022-10-01T03:19:36.025Z,11.3
2022-10-01T03:20:39.462Z,11.2
2022-10-01T03:21:42.643Z,11.2
2022-10-01T03:22:46.020Z,11.2
2022-10-01T03:23:48.814Z,11.2
2022-10-01T03:24:51.958Z,11.2
2022-10-01T03:25:55.100Z,11.2
2022-10-01T03:26:57.774Z,11.2
2022-10-01T03:28:01.430Z,11.2
2022-10-01T03:29:04.315Z,11.2
2022-10-01T03:30:07.468Z,11.3
2022-10-01T03:31:11.132Z,11.2
2022-10-01T03:32:14.474Z,11.3
2022-10-01T03:33:18.218Z,11.3
2022-10-01T03:34:21.726Z,11.3
2022-10-01T03:35:24.791Z,11.3
2022-10-01T03:36:26.948Z,11.3
2022-10-01T03:37:30.119Z,11.3
2022-10-01T03:38:33.461Z,11.3
2022-10-01T03:39:36.330Z,11.3
2022-10-01T03:40:38.769Z,11.3
2022-10-01T03:41:41.558Z,11.3
2022-10-01T03:42:45.030Z,11.3
2022-10-01T03:43:47.819Z,11.4
2022-10-01T03:44:51.268Z,11.3
2022-10-01T03:45:54.051Z,11.3
2022-10-01T03:46:57.499Z,11.3
2022-10-01T03:48:01.194Z,11.3
2022-10-01T03:49:04.082Z,11.3
2022-10-01T03:50:06.963Z,11.3
2022-10-01T03:51:10.225Z,11.3
2022-10-01T03:52:13.739Z,11.3
2022-10-01T03:53:17.186Z,11.4
2022-10-01T03:54:19.703Z,11.4
2022-10-01T03:55:22.774Z,11.4
2022-10-01T03:56:25.915Z,11.4
2022-10-01T03:57:28.788Z,11.4
2022-10-01T03:58:31.937Z,11.4
2022-10-01T03:59:35.280Z,11.4
2022-10-01T04:00:37.789Z,11.4
2022-10-01T04:01:41.655Z,11.4
2022-10-01T04:02:46.426Z,11.4
2022-10-01T04:03:50.298Z,11.4
2022-10-01T04:04:54.020Z,11.4
2022-10-01T04:05:56.612Z,11.4
2022-10-01T04:06:59.406Z,11.4
2022-10-01T04:08:01.917Z,11.4
2022-10-01T04:09:04.808Z,11.4
2022-10-01T04:10:07.414Z,11.4
2022-10-01T04:11:10.124Z,11.4
2022-10-01T04:12:13.849Z,11.3
2022-10-01T04:13:16.849Z,11.3
2022-10-01T04:14:20.643Z,11.3
2022-10-01T04:15:24.087Z,11.3
2022-10-01T04:16:27.384Z,11.3
2022-10-01T04:17:30.360Z,11.3
2022-10-01T04:18:33.788Z,11.3
2022-10-01T04:19:36.997Z,11.3
2022-10-01T04:20:40.712Z,11.3
2022-10-01T04:21:43.053Z,11.3
2022-10-01T04:22:45.924Z,11.3
2022-10-01T04:23:48.984Z,11.3
2022-10-01T04:24:52.712Z,11.3
2022-10-01T04:25:55.141Z,11.3
2022-10-01T04:26:58.357Z,11.3
2022-10-01T04:28:01.676Z,11.3
2022-10-01T04:29:04.928Z,11.3
2022-10-01T04:30:07.452Z,11.3
2022-10-01T04:31:10.981Z,11.3
2022-10-01T04:32:14.075Z,11.3
2022-10-01T04:33:17.098Z,11.3
2022-10-01T04:34:20.592Z,11.4
2022-10-01T04:35:23.989Z,11.4
2022-10-01T04:36:27.222Z,11.4
2022-10-01T04:37:30.015Z,11.4
2022-10-01T04:38:32.797Z,11.4
2022-10-01T04:39:35.523Z,11.4
2022-10-01T04:40:38.251Z,11.4
2022-10-01T04:41:41.430Z,11.4
2022-10-01T04:42:43.958Z,11.4
2022-10-01T04:43:47.202Z,11.4
2022-10-01T04:44:50.906Z,11.4
2022-10-01T04:45:53.988Z,11.4
2022-10-01T04:46:56.623Z,11.4
2022-10-01T04:47:59.863Z,11.5
2022-10-01T04:49:03.390Z,11.4
2022-10-01T04:50:06.600Z,11.4
2022-10-01T04:51:10.151Z,11.5
2022-10-01T04:52:14.204Z,11.5
2022-10-01T04:53:16.916Z,11.5
2022-10-01T04:54:19.430Z,11.5
2022-10-01T04:55:22.209Z,11.5
2022-10-01T04:56:25.440Z,11.5
2022-10-01T04:57:28.497Z,11.5
2022-10-01T04:58:31.093Z,11.5
2022-10-01T04:59:34.442Z,11.5
2022-10-01T05:00:37.856Z,11.5
2022-10-01T05:01:41.983Z,11.5
2022-10-01T05:02:45.552Z,11.5
2022-10-01T05:03:48.260Z,11.5
2022-10-01T05:04:50.774Z,11.5
2022-10-01T05:05:54.240Z,11.5
2022-10-01T05:06:58.293Z,11.5
2022-10-01T05:08:02.029Z,11.5
2022-10-01T05:09:04.744Z,11.5
2022-10-01T05:10:07.637Z,11.5
2022-10-01T05:11:10.147Z,11.5
2022-10-01T05:12:13.045Z,11.5
2022-10-01T05:13:15.915Z,11.5
2022-10-01T05:14:19.186Z,11.5
2022-10-01T05:15:22.622Z,11.5
2022-10-01T05:16:25.761Z,11.6
2022-10-01T05:17:29.580Z,11.6
2022-10-01T05:18:32.459Z,11.6
2022-10-01T05:19:35.263Z,11.6
2022-10-01T05:20:38.136Z,11.6
2022-10-01T05:21:41.547Z,11.6
2022-10-01T05:22:44.461Z,11.6
2022-10-01T05:23:47.442Z,11.6
2022-10-01T05:24:50.051Z,11.6
2022-10-01T05:25:53.204Z,11.6
2022-10-01T05:26:56.000Z,11.6
2022-10-01T05:27:58.956Z,11.6
2022-10-01T05:29:02.334Z,11.6
2022-10-01T05:30:05.153Z,11.7
2022-10-01T05:31:08.868Z,11.6
2022-10-01T05:32:12.055Z,11.6
2022-10-01T05:33:15.592Z,11.6
2022-10-01T05:34:18.508Z,11.7
2022-10-01T05:35:21.644Z,11.7
2022-10-01T05:36:24.432Z,11.7
2022-10-01T05:37:28.207Z,11.7
2022-10-01T05:38:30.897Z,11.7
2022-10-01T05:39:34.357Z,11.8
2022-10-01T05:40:37.032Z,11.8
2022-10-01T05:41:39.821Z,11.8
2022-10-01T05:42:42.712Z,11.8
2022-10-01T05:43:46.070Z,11.8
2022-10-01T05:44:49.143Z,11.8
2022-10-01T05:45:52.070Z,11.8
2022-10-01T05:46:55.266Z,11.9
2022-10-01T05:47:59.013Z,11.8
2022-10-01T05:49:01.874Z,11.8
2022-10-01T05:50:04.949Z,11.9
2022-10-01T05:51:07.671Z,11.9
2022-10-01T05:52:11.124Z,11.9
2022-10-01T05:53:15.285Z,11.9
2022-10-01T05:54:18.381Z,11.9
2022-10-01T05:55:22.225Z,11.9
2022-10-01T05:56:25.967Z,11.9
2022-10-01T05:57:28.396Z,11.9
2022-10-01T05:58:31.834Z,11.9
2022-10-01T05:59:35.488Z,12
2022-10-01T06:00:38.326Z,12
2022-10-01T06:01:41.554Z,12
2022-10-01T06:02:45.489Z,12
2022-10-01T06:03:49.317Z,12
2022-10-01T06:04:51.711Z,12
2022-10-01T06:05:55.439Z,12
2022-10-01T06:06:58.251Z,12
2022-10-01T06:08:01.193Z,12
2022-10-01T06:09:04.339Z,12
2022-10-01T06:10:07.604Z,12
2022-10-01T06:11:10.680Z,12
2022-10-01T06:12:20.380Z,12
2022-10-01T06:13:23.373Z,12
2022-10-01T06:14:26.445Z,12
2022-10-01T06:15:29.726Z,11.9
2022-10-01T06:16:33.346Z,11.9
2022-10-01T06:17:36.912Z,11.9
2022-10-01T06:18:40.179Z,11.9
2022-10-01T06:19:43.703Z,11.9
2022-10-01T06:20:46.486Z,11.9
2022-10-01T06:21:49.578Z,11.9
2022-10-01T06:22:52.295Z,11.9
2022-10-01T06:23:55.143Z,11.9
2022-10-01T06:24:58.883Z,11.9
2022-10-01T06:26:02.290Z,11.9
2022-10-01T06:27:05.097Z,11.9
2022-10-01T06:28:08.361Z,11.9
2022-10-01T06:29:11.996Z,11.9
2022-10-01T06:30:14.875Z,11.9
2022-10-01T06:31:18.121Z,11.9
2022-10-01T06:32:20.908Z,11.9
2022-10-01T06:33:23.391Z,11.9
2022-10-01T06:34:25.437Z,11.9
2022-10-01T06:35:28.505Z,11.9
2022-10-01T06:36:31.952Z,11.9
2022-10-01T06:37:34.821Z,11.9
2022-10-01T06:38:37.875Z,12
2022-10-01T06:39:40.937Z,11.9
2022-10-01T06:40:44.748Z,11.9
2022-10-01T06:41:47.305Z,12
2022-10-01T06:42:57.362Z,12
2022-10-01T06:44:00.635Z,11.9
2022-10-01T06:45:03.509Z,11.9
2022-10-01T06:46:06.822Z,11.9
2022-10-01T06:47:11.071Z,11.9
2022-10-01T06:48:13.786Z,11.9
2022-10-01T06:49:16.953Z,11.9
2022-10-01T06:50:19.568Z,11.9
2022-10-01T06:51:22.740Z,11.9
2022-10-01T06:52:25.448Z,11.9
2022-10-01T06:53:28.542Z,11.9
2022-10-01T06:54:31.692Z,11.9
2022-10-01T06:55:35.115Z,11.9
2022-10-01T06:56:38.690Z,11.9
2022-10-01T06:57:42.549Z,11.9
2022-10-01T06:58:46.291Z,11.9
2022-10-01T06:59:49.431Z,11.9
2022-10-01T07:00:52.447Z,11.9
2022-10-01T07:01:57.372Z,11.9
2022-10-01T07:03:00.089Z,11.9
2022-10-01T07:04:03.043Z,11.9
2022-10-01T07:05:06.419Z,11.9
2022-10-01T07:06:09.131Z,11.9
2022-10-01T07:07:11.291Z,11.9
2022-10-01T07:08:14.110Z,11.9
2022-10-01T07:09:17.055Z,11.9
2022-10-01T07:10:20.750Z,11.9
2022-10-01T07:11:24.022Z,11.9
2022-10-01T07:12:27.443Z,11.9
2022-10-01T07:13:30.356Z,12
2022-10-01T07:14:33.582Z,12
2022-10-01T07:15:36.574Z,12
2022-10-01T07:16:40.490Z,12
2022-10-01T07:17:44.266Z,11.9
2022-10-01T07:18:47.630Z,11.9
2022-10-01T07:19:50.339Z,11.9
2022-10-01T07:20:53.430Z,11.9
2022-10-01T07:21:56.776Z,11.9
2022-10-01T07:22:59.490Z,11.9
2022-10-01T07:24:03.213Z,11.9
2022-10-01T07:25:06.352Z,12
2022-10-01T07:26:09.441Z,12
2022-10-01T07:27:12.512Z,12
2022-10-01T07:28:16.709Z,12
2022-10-01T07:29:20.808Z,12
2022-10-01T07:30:24.060Z,12.1
2022-10-01T07:31:26.897Z,12.1
2022-10-01T07:32:30.253Z,12.2
2022-10-01T07:33:33.322Z,12.2
2022-10-01T07:34:35.923Z,12.2
2022-10-01T07:35:38.422Z,12.3
2022-10-01T07:36:41.478Z,12.3
2022-10-01T07:37:44.120Z,12.3
2022-10-01T07:38:47.269Z,12.3
2022-10-01T07:39:50.724Z,12.3
2022-10-01T07:40:54.811Z,12.3
2022-10-01T07:41:58.030Z,12.3
2022-10-01T07:43:00.675Z,12.3
2022-10-01T07:44:04.406Z,12.3
2022-10-01T07:45:07.689Z,12.3
2022-10-01T07:46:11.252Z,12.2
2022-10-01T07:47:14.470Z,12.2
2022-10-01T07:48:17.845Z,12.2
2022-10-01T07:49:20.441Z,12.1
2022-10-01T07:50:23.867Z,12.1
2022-10-01T07:51:27.272Z,12.1
2022-10-01T07:52:30.080Z,12.1
2022-10-01T07:53:33.427Z,12.1
2022-10-01T07:54:36.140Z,12
2022-10-01T07:55:38.816Z,12.1
2022-10-01T07:56:42.519Z,12
2022-10-01T07:57:45.694Z,12
2022-10-01T07:58:48.481Z,12
2022-10-01T07:59:56.834Z,12
2022-10-01T08:00:59.988Z,12
2022-10-01T08:02:04.260Z,12
2022-10-01T08:03:07.155Z,11.9
2022-10-01T08:04:10.493Z,11.9
2022-10-01T08:05:14.019Z,11.9
2022-10-01T08:06:16.828Z,11.9
2022-10-01T08:07:27.676Z,12
2022-10-01T08:08:31.401Z,12
2022-10-01T08:09:35.114Z,12
2022-10-01T08:10:37.608Z,12
2022-10-01T08:11:40.041Z,12
2022-10-01T08:12:42.838Z,12
2022-10-01T08:13:45.618Z,12
2022-10-01T08:14:48.612Z,12.1
2022-10-01T08:15:51.822Z,12.1
2022-10-01T08:16:55.446Z,12.1
2022-10-01T08:17:58.554Z,12
2022-10-01T08:19:01.625Z,12.1
2022-10-01T08:20:05.084Z,12.1
2022-10-01T08:21:07.918Z,12
2022-10-01T08:22:10.933Z,12
2022-10-01T08:23:14.287Z,12
2022-10-01T08:24:16.873Z,12
2022-10-01T08:25:19.669Z,12
2022-10-01T08:26:22.733Z,12
2022-10-01T08:27:25.820Z,12
2022-10-01T08:28:28.951Z,12
2022-10-01T08:29:32.469Z,12
2022-10-01T08:30:35.280Z,12
2022-10-01T08:31:39.312Z,12
2022-10-01T08:32:41.776Z,12
2022-10-01T08:33:45.009Z,12
2022-10-01T08:34:48.074Z,12
2022-10-01T08:35:59.392Z,12
2022-10-01T08:37:02.814Z,12
2022-10-01T08:38:06.005Z,12
2022-10-01T08:39:09.475Z,12
2022-10-01T08:40:12.741Z,12
2022-10-01T08:41:15.450Z,12
2022-10-01T08:42:25.861Z,12
2022-10-01T08:43:28.931Z,12
2022-10-01T08:44:31.715Z,12
2022-10-01T08:45:34.724Z,12
2022-10-01T08:46:37.730Z,12
2022-10-01T08:47:41.225Z,12
2022-10-01T08:48:44.411Z,12
2022-10-01T08:49:48.239Z,12
2022-10-01T08:50:51.305Z,12
2022-10-01T08:51:53.464Z,12
2022-10-01T08:52:56.345Z,12
2022-10-01T08:54:00.119Z,12
2022-10-01T08:55:03.192Z,12
2022-10-01T08:56:06.370Z,12
2022-10-01T08:57:09.670Z,12.1
2022-10-01T08:58:12.104Z,12
2022-10-01T08:59:15.233Z,12.1
2022-10-01T09:00:18.735Z,12
2022-10-01T09:01:21.828Z,12.1
2022-10-01T09:02:24.910Z,12.1
2022-10-01T09:03:28.411Z,12.1
2022-10-01T09:04:32.092Z,12
2022-10-01T09:05:36.024Z,12
2022-10-01T09:06:38.951Z,12.1
2022-10-01T09:07:42.682Z,12.1
2022-10-01T09:08:46.036Z,12.1
2022-10-01T09:09:48.760Z,12.1
2022-10-01T09:10:51.914Z,12.1
2022-10-01T09:11:54.982Z,12.1
2022-10-01T09:12:57.777Z,12.1
2022-10-01T09:14:01.504Z,12.1
2022-10-01T09:15:04.656Z,12.1
2022-10-01T09:16:08.120Z,12.1
2022-10-01T09:17:11.561Z,12.1
2022-10-01T09:18:14.539Z,12.1
2022-10-01T09:19:18.050Z,12.1
2022-10-01T09:20:20.611Z,12.1
2022-10-01T09:21:24.063Z,12.1
2022-10-01T09:22:27.514Z,12.1
2022-10-01T09:23:30.111Z,12.1
2022-10-01T09:24:33.050Z,12.1
2022-10-01T09:25:36.209Z,12.1
2022-10-01T09:26:39.283Z,12.1
2022-10-01T09:27:42.697Z,12.1
2022-10-01T09:28:45.463Z,12.1
2022-10-01T09:29:48.615Z,12.1
2022-10-01T09:30:51.132Z,12.1
2022-10-01T09:31:53.668Z,12.1
2022-10-01T09:32:56.771Z,12.1
2022-10-01T09:33:59.838Z,12.1
2022-10-01T09:35:05.670Z,12.1
2022-10-01T09:36:09.348Z,12.1
2022-10-01T09:37:12.848Z,12.1
2022-10-01T09:38:16.846Z,12.1
2022-10-01T09:39:19.637Z,12.1
2022-10-01T09:40:22.064Z,12.1
2022-10-01T09:41:24.873Z,12.1
2022-10-01T09:42:28.666Z,12.2
2022-10-01T09:43:32.006Z,12.2
2022-10-01T09:44:34.521Z,12.2
2022-10-01T09:45:37.633Z,12.3
2022-10-01T09:46:40.962Z,12.3
2022-10-01T09:47:43.753Z,12.3
2022-10-01T09:48:46.544Z,12.4
2022-10-01T09:49:49.346Z,12.4
2022-10-01T09:50:52.618Z,12.4
2022-10-01T09:51:55.515Z,12.4
2022-10-01T09:52:59.223Z,12.4
2022-10-01T09:54:02.604Z,12.4
2022-10-01T09:55:05.037Z,12.4
2022-10-01T09:56:08.468Z,12.5
2022-10-01T09:57:11.554Z,12.5
2022-10-01T09:58:14.713Z,12.4
2022-10-01T09:59:17.894Z,12.5
2022-10-01T10:00:20.328Z,12.5
2022-10-01T10:01:23.193Z,12.5
2022-10-01T10:02:26.058Z,12.5
2022-10-01T10:03:29.457Z,12.5
2022-10-01T10:04:33.345Z,12.5
2022-10-01T10:05:36.690Z,12.5
2022-10-01T10:06:40.326Z,12.6
2022-10-01T10:07:44.024Z,12.6
2022-10-01T10:08:47.115Z,12.6
2022-10-01T10:09:50.308Z,12.6
2022-10-01T10:10:53.838Z,12.6
2022-10-01T10:11:56.723Z,12.6
2022-10-01T10:13:00.767Z,12.6
2022-10-01T10:14:02.774Z,12.6
2022-10-01T10:15:06.124Z,12.6
2022-10-01T10:16:10.111Z,12.6
2022-10-01T10:17:13.873Z,12.6
2022-10-01T10:18:24.550Z,12.7
2022-10-01T10:19:28.506Z,12.7
2022-10-01T10:20:31.584Z,12.7
2022-10-01T10:21:35.025Z,12.7
2022-10-01T10:22:38.447Z,12.7
2022-10-01T10:23:41.481Z,12.7
2022-10-01T10:24:44.660Z,12.7
2022-10-01T10:25:48.113Z,12.7
2022-10-01T10:26:51.329Z,12.7
2022-10-01T10:27:54.309Z,12.7
2022-10-01T10:28:58.572Z,12.7
2022-10-01T10:30:01.573Z,12.7
2022-10-01T10:31:04.740Z,12.7
2022-10-01T10:32:07.778Z,12.7
2022-10-01T10:33:10.570Z,12.8
2022-10-01T10:34:14.061Z,12.8
2022-10-01T10:35:16.502Z,12.8
2022-10-01T10:36:19.878Z,12.8
2022-10-01T10:37:22.759Z,12.8
2022-10-01T10:38:25.972Z,12.9
2022-10-01T10:39:28.804Z,12.9
2022-10-01T10:40:32.344Z,12.9
2022-10-01T10:41:36.960Z,12.9
2022-10-01T10:42:41.425Z,12.9
2022-10-01T10:43:43.630Z,12.9
2022-10-01T10:44:47.152Z,12.9
2022-10-01T10:45:50.199Z,12.9
2022-10-01T10:46:53.589Z,12.9
2022-10-01T10:47:57.083Z,12.9
2022-10-01T10:49:00.497Z,12.9
2022-10-01T10:50:03.902Z,12.9
2022-10-01T10:51:06.509Z,13
2022-10-01T10:52:08.927Z,13
2022-10-01T10:53:11.990Z,13
2022-10-01T10:54:15.491Z,12.9
2022-10-01T10:55:18.824Z,12.9
2022-10-01T10:56:23.028Z,12.9
2022-10-01T10:57:26.445Z,12.9
2022-10-01T10:58:29.754Z,12.9
2022-10-01T10:59:32.570Z,12.9
2022-10-01T11:00:36.233Z,12.9
2022-10-01T11:01:39.996Z,12.9
2022-10-01T11:02:43.728Z,12.9
2022-10-01T11:03:47.075Z,12.9
2022-10-01T11:04:50.277Z,12.9
2022-10-01T11:05:53.755Z,12.9
2022-10-01T11:06:57.409Z,12.9
2022-10-01T11:07:59.658Z,12.9
2022-10-01T11:09:02.446Z,12.9
2022-10-01T11:10:06.226Z,12.9
2022-10-01T11:11:09.426Z,12.9
2022-10-01T11:12:13.065Z,12.9
2022-10-01T11:13:16.336Z,12.9
2022-10-01T11:14:24.332Z,12.9
2022-10-01T11:15:27.403Z,12.9
2022-10-01T11:16:30.582Z,12.9
2022-10-01T11:17:34.454Z,12.9
2022-10-01T11:18:37.726Z,12.9
2022-10-01T11:19:40.893Z,12.9
2022-10-01T11:20:43.956Z,13
2022-10-01T11:21:47.323Z,12.9
2022-10-01T11:22:50.593Z,12.9
2022-10-01T11:23:54.317Z,13
2022-10-01T11:24:57.671Z,13
2022-10-01T11:26:01.153Z,13
2022-10-01T11:27:04.267Z,13
2022-10-01T11:28:07.811Z,13
2022-10-01T11:29:11.069Z,13
2022-10-01T11:30:13.785Z,13
2022-10-01T11:31:16.430Z,13
2022-10-01T11:32:20.513Z,13
2022-10-01T11:33:23.506Z,13
2022-10-01T11:34:26.105Z,13.1
2022-10-01T11:35:29.285Z,13.1
2022-10-01T11:36:33.126Z,13.1
2022-10-01T11:37:37.474Z,13.1
2022-10-01T11:38:39.629Z,13.1
2022-10-01T11:39:42.431Z,13.1
2022-10-01T11:40:45.146Z,13.2
2022-10-01T11:41:49.265Z,13.1
2022-10-01T11:42:51.488Z,13.2
2022-10-01T11:43:54.639Z,13.2
2022-10-01T11:45:01.347Z,13.1
2022-10-01T11:46:04.484Z,13.2
2022-10-01T11:47:07.422Z,13.2
2022-10-01T11:48:10.531Z,13.2
2022-10-01T11:49:13.326Z,13.2
2022-10-01T11:50:16.395Z,13.2
2022-10-01T11:51:19.186Z,13.2
2022-10-01T11:52:22.008Z,13.2
2022-10-01T11:53:25.153Z,13.2
2022-10-01T11:54:28.223Z,13.2
2022-10-01T11:55:31.703Z,13.2
2022-10-01T11:56:35.821Z,13.2
2022-10-01T11:57:40.538Z,13.3
2022-10-01T11:58:42.834Z,13.3
2022-10-01T11:59:46.493Z,13.3
2022-10-01T12:00:49.282Z,13.3
2022-10-01T12:01:52.181Z,13.3
2022-10-01T12:02:55.636Z,13.4
2022-10-01T12:03:58.875Z,13.3
2022-10-01T12:05:01.315Z,13.4
2022-10-01T12:06:05.048Z,13.4
2022-10-01T12:07:07.210Z,13.4
2022-10-01T12:08:10.341Z,13.4
2022-10-01T12:09:13.694Z,13.4
2022-10-01T12:10:17.045Z,13.4
2022-10-01T12:11:19.838Z,13.5
2022-10-01T12:12:22.624Z,13.5
2022-10-01T12:13:26.729Z,13.5
2022-10-01T12:14:29.542Z,13.5
2022-10-01T12:15:32.639Z,13.5
2022-10-01T12:16:37.007Z,13.6
2022-10-01T12:17:41.403Z,13.6
2022-10-01T12:18:44.849Z,13.6
2022-10-01T12:19:47.686Z,13.6
2022-10-01T12:20:50.843Z,13.6
2022-10-01T12:21:53.743Z,13.7
2022-10-01T12:22:56.859Z,13.7
2022-10-01T12:24:00.234Z,13.7
2022-10-01T12:25:04.006Z,13.7
2022-10-01T12:26:07.165Z,13.8
2022-10-01T12:27:10.322Z,13.8
2022-10-01T12:28:13.515Z,13.8
2022-10-01T12:29:17.587Z,13.9
2022-10-01T12:30:21.138Z,13.9
2022-10-01T12:31:24.431Z,13.9
2022-10-01T12:32:27.570Z,14
2022-10-01T12:33:31.270Z,14
2022-10-01T12:34:33.526Z,14
2022-10-01T12:35:36.998Z,14.1
2022-10-01T12:36:40.533Z,14.1
2022-10-01T12:37:43.714Z,14.2
2022-10-01T12:38:46.456Z,14.2
2022-10-01T12:39:49.252Z,14.2
2022-10-01T12:40:52.423Z,14.3
2022-10-01T12:41:56.152Z,14.3
2022-10-01T12:43:04.820Z,14.3
2022-10-01T12:44:08.177Z,14.3
2022-10-01T12:45:11.383Z,14.4
2022-10-01T12:46:15.023Z,14.4
2022-10-01T12:47:18.677Z,14.4
2022-10-01T12:48:21.670Z,14.4
2022-10-01T12:49:25.045Z,14.4
2022-10-01T12:50:27.929Z,14.5
2022-10-01T12:51:30.667Z,14.5
2022-10-01T12:52:33.686Z,14.5
2022-10-01T12:53:37.383Z,14.5
2022-10-01T12:54:40.757Z,14.5
2022-10-01T12:55:43.270Z,14.5
2022-10-01T12:56:46.264Z,14.6
2022-10-01T12:57:49.326Z,14.6
2022-10-01T12:58:52.500Z,14.6
2022-10-01T12:59:55.671Z,14.6
2022-10-01T13:00:59.377Z,14.6
2022-10-01T13:02:03.109Z,14.6
2022-10-01T13:03:07.287Z,14.7
2022-10-01T13:04:09.992Z,14.7
2022-10-01T13:05:13.142Z,14.7
2022-10-01T13:06:16.409Z,14.7
2022-10-01T13:07:19.576Z,14.8
2022-10-01T13:08:22.722Z,14.8
2022-10-01T13:09:25.820Z,14.8
2022-10-01T13:10:29.352Z,14.8
2022-10-01T13:11:32.222Z,14.8
2022-10-01T13:12:35.214Z,14.9
2022-10-01T13:13:38.733Z,14.9
2022-10-01T13:14:41.332Z,15
2022-10-01T13:15:44.294Z,15
2022-10-01T13:16:48.748Z,15.1
2022-10-01T13:17:51.395Z,15.1
2022-10-01T13:18:54.935Z,15.2
2022-10-01T13:19:58.359Z,15.2
2022-10-01T13:21:00.764Z,15.3
2022-10-01T13:22:04.473Z,15.4
2022-10-01T13:23:07.298Z,15.4
2022-10-01T13:24:11.036Z,15.5
2022-10-01T13:25:13.836Z,15.5
2022-10-01T13:26:16.785Z,15.6
2022-10-01T13:27:20.209Z,15.6
2022-10-01T13:28:23.524Z,15.6
2022-10-01T13:29:26.944Z,15.7
2022-10-01T13:30:29.944Z,15.7
2022-10-01T13:31:33.387Z,15.8
2022-10-01T13:32:36.832Z,15.8
2022-10-01T13:33:40.615Z,15.8
2022-10-01T13:34:44.408Z,15.9
2022-10-01T13:35:47.668Z,15.9
2022-10-01T13:36:50.179Z,15.9
2022-10-01T13:37:52.905Z,16
2022-10-01T13:38:56.209Z,16
2022-10-01T13:39:59.309Z,16
2022-10-01T13:41:02.515Z,16
2022-10-01T13:42:05.508Z,16.1
2022-10-01T13:43:08.965Z,16.1
2022-10-01T13:44:11.834Z,16.1
2022-10-01T13:45:17.751Z,16.2
2022-10-01T13:46:21.421Z,16.2
2022-10-01T13:47:24.809Z,16.2
2022-10-01T13:48:27.953Z,16.3
2022-10-01T13:49:31.417Z,16.4
2022-10-01T13:50:34.861Z,16.4
2022-10-01T13:51:38.201Z,16.4
2022-10-01T13:52:41.613Z,16.4
2022-10-01T13:53:44.681Z,16.4
2022-10-01T13:54:47.331Z,16.5
2022-10-01T13:55:49.960Z,16.4
2022-10-01T13:56:52.121Z,16.4
2022-10-01T13:57:55.261Z,16.5
2022-10-01T13:58:57.578Z,16.5
2022-10-01T14:00:00.477Z,16.5
2022-10-01T14:01:03.835Z,16.4
2022-10-01T14:02:06.998Z,16.5
2022-10-01T14:03:11.063Z,16.4
2022-10-01T14:04:15.139Z,16.4
2022-10-01T14:05:17.988Z,16.5
2022-10-01T14:06:22.010Z,16.4
2022-10-01T14:07:25.454Z,16.5
2022-10-01T14:08:28.619Z,16.5
2022-10-01T14:09:30.953Z,16.5